createdAt,value
2022-08-20T00:01:09.402Z,9.25
2022-08-20T00:03:20.436Z,8.52
2022-08-20T00:05:31.277Z,9.90
2022-08-20T00:07:36.713Z,9.02
2022-08-20T00:09:41.754Z,9.45
2022-08-20T00:11:47.025Z,9.43
2022-08-20T00:13:56.901Z,8.80
2022-08-20T00:16:01.943Z,9.18
2022-08-20T00:18:07.416Z,9.15
2022-08-20T00:20:14.499Z,8.90
2022-08-20T00:22:19.266Z,10.52
2022-08-20T00:24:23.696Z,9.27
2022-08-20T00:26:28.514Z,8.88
2022-08-20T00:28:33.390Z,9.25
2022-08-20T00:30:39.530Z,9.05
2022-08-20T00:32:47.519Z,8.80
2022-08-20T00:34:52.159Z,8.55
2022-08-20T00:36:57.145Z,8.93
2022-08-20T00:39:01.752Z,9.23
2022-08-20T00:41:08.360Z,8.20
2022-08-20T00:43:29.568Z,8.88
2022-08-20T00:45:36.920Z,9.02
2022-08-20T00:47:51.205Z,9.10
2022-08-20T00:49:56.459Z,9.73
2022-08-20T00:52:06.973Z,8.60
2022-08-20T00:54:16.205Z,10.38
2022-08-20T00:56:20.801Z,9.30
2022-08-20T00:58:25.919Z,9.98
2022-08-20T01:00:32.922Z,9.35
2022-08-20T01:02:37.590Z,8.95
2022-08-20T01:04:46.413Z,9.10
2022-08-20T01:06:51.112Z,9.48
2022-08-20T01:08:55.572Z,9.38
2022-08-20T01:11:10.472Z,9.23
2022-08-20T01:13:20.589Z,9.07
2022-08-20T01:15:30.822Z,9.40
2022-08-20T01:17:37.859Z,9.30
2022-08-20T01:19:47.623Z,9.32
2022-08-20T01:21:52.818Z,10.18
2022-08-20T01:24:03.309Z,9.90
2022-08-20T01:26:12.562Z,9.98
2022-08-20T01:28:20.880Z,9.48
2022-08-20T01:30:28.683Z,9.27
2022-08-20T01:32:33.235Z,9.68
2022-08-20T01:34:43.406Z,9.57
2022-08-20T01:36:49.849Z,9.65
2022-08-20T01:38:54.961Z,9.85
2022-08-20T01:41:15.745Z,9.40
2022-08-20T01:43:20.621Z,10.32
2022-08-20T01:45:30.238Z,10.35
2022-08-20T01:47:38.476Z,10.23
2022-08-20T01:49:46.631Z,10.50
2022-08-20T01:51:52.302Z,10.60
2022-08-20T01:54:00.039Z,9.82
2022-08-20T01:56:07.312Z,11.48
2022-08-20T01:58:13.561Z,10.10
2022-08-20T02:00:22.094Z,11.00
2022-08-20T02:02:27.866Z,9.55
2022-08-20T02:04:32.571Z,9.77
2022-08-20T02:06:39.155Z,10.90
2022-08-20T02:08:49.928Z,10.13
2022-08-20T02:10:56.005Z,10.90
2022-08-20T02:13:01.237Z,9.80
2022-08-20T02:15:34.750Z,9.93
2022-08-20T02:17:42.699Z,10.85
2022-08-20T02:19:52.403Z,10.25
2022-08-20T02:21:59.163Z,10.73
2022-08-20T02:24:03.745Z,10.88
2022-08-20T02:26:08.403Z,10.52
2022-08-20T02:28:20.076Z,10.05
2022-08-20T02:30:28.832Z,11.25
2022-08-20T02:32:34.194Z,10.80
2022-08-20T02:34:39.589Z,11.13
2022-08-20T02:36:46.329Z,10.80
2022-08-20T02:38:50.897Z,11.10
2022-08-20T02:40:55.620Z,11.38
2022-08-20T02:43:01.718Z,10.90
2022-08-20T02:45:07.520Z,11.52
2022-08-20T02:47:16.148Z,11.18
2022-08-20T02:49:21.203Z,11.63
2022-08-20T02:51:30.397Z,11.68
2022-08-20T02:53:38.080Z,11.73
2022-08-20T02:55:42.577Z,11.48
2022-08-20T02:57:47.853Z,12.30
2022-08-20T02:59:56.661Z,11.32
2022-08-20T03:02:01.385Z,12.18
2022-08-20T03:04:15.511Z,11.27
2022-08-20T03:06:23.897Z,11.80
2022-08-20T03:08:29.871Z,11.02
2022-08-20T03:10:39.236Z,11.30
2022-08-20T03:12:44.541Z,12.13
2022-08-20T03:14:59.232Z,12.85
2022-08-20T03:17:04.476Z,12.35
2022-08-20T03:19:10.232Z,12.75
2022-08-20T03:21:15.317Z,12.05
2022-08-20T03:23:21.615Z,12.50
2022-08-20T03:25:26.323Z,12.02
2022-08-20T03:27:36.198Z,12.48
2022-08-20T03:29:40.968Z,12.93
2022-08-20T03:31:45.351Z,11.65
2022-08-20T03:33:53.466Z,12.52
2022-08-20T03:35:59.832Z,11.43
2022-08-20T03:38:09.200Z,12.52
2022-08-20T03:40:16.870Z,12.20
2022-08-20T03:42:21.415Z,12.68
2022-08-20T03:44:26.852Z,12.80
2022-08-20T03:46:31.336Z,12.45
2022-08-20T03:48:35.795Z,11.70
2022-08-20T03:50:42.740Z,11.32
2022-08-20T03:52:48.977Z,11.95
2022-08-20T03:54:54.431Z,14.00
2022-08-20T03:56:58.906Z,12.50
2022-08-20T03:59:03.648Z,12.70
2022-08-20T04:01:12.613Z,13.02
2022-08-20T04:03:33.613Z,12.98
2022-08-20T04:05:40.485Z,13.77
2022-08-20T04:07:45.294Z,14.82
2022-08-20T04:09:50.965Z,27.30
2022-08-20T04:12:00.359Z,32.13
2022-08-20T04:14:04.848Z,36.83
2022-08-20T04:16:12.825Z,37.00
2022-08-20T04:18:24.148Z,35.47
2022-08-20T04:20:29.032Z,28.52
2022-08-20T04:22:33.571Z,29.27
2022-08-20T04:24:38.693Z,27.23
2022-08-20T04:26:44.922Z,25.02
2022-08-20T04:28:50.086Z,21.40
2022-08-20T04:30:55.800Z,21.20
2022-08-20T04:33:00.711Z,17.25
2022-08-20T04:35:06.005Z,16.10
2022-08-20T04:37:17.344Z,14.23
2022-08-20T04:39:21.792Z,14.60
2022-08-20T04:41:24.949Z,14.43
2022-08-20T04:43:33.767Z,13.00
2022-08-20T04:45:38.134Z,12.50
2022-08-20T04:47:43.040Z,12.70
2022-08-20T04:49:47.634Z,11.65
2022-08-20T04:51:52.049Z,10.85
2022-08-20T04:53:58.215Z,12.05
2022-08-20T04:56:05.043Z,11.40
2022-08-20T04:58:13.665Z,11.60
2022-08-20T05:00:19.690Z,11.00
2022-08-20T05:02:24.250Z,12.43
2022-08-20T05:04:28.726Z,9.70
2022-08-20T05:06:34.101Z,11.13
2022-08-20T05:08:39.262Z,11.15
2022-08-20T05:10:44.817Z,10.63
2022-08-20T05:12:56.965Z,10.60
2022-08-20T05:15:01.628Z,9.48
2022-08-20T05:17:09.245Z,9.88
2022-08-20T05:19:15.225Z,9.73
2022-08-20T05:21:19.953Z,9.75
2022-08-20T05:23:24.474Z,9.60
2022-08-20T05:25:30.441Z,9.00
2022-08-20T05:27:34.942Z,9.50
2022-08-20T05:29:39.418Z,10.88
2022-08-20T05:31:43.815Z,9.60
2022-08-20T05:33:51.830Z,8.85
2022-08-20T05:35:57.920Z,10.48
2022-08-20T05:38:02.912Z,9.27
2022-08-20T05:40:11.928Z,9.05
2022-08-20T05:42:16.701Z,9.15
2022-08-20T05:44:21.041Z,9.30
2022-08-20T05:46:25.548Z,8.35
2022-08-20T05:48:30.485Z,7.93
2022-08-20T05:50:36.350Z,8.68
2022-08-20T05:52:40.540Z,8.60
2022-08-20T05:54:44.751Z,7.55
2022-08-20T05:56:49.135Z,8.07
2022-08-20T05:58:53.401Z,7.95
2022-08-20T06:00:59.032Z,7.40
2022-08-20T06:03:20.797Z,8.25
2022-08-20T06:05:25.760Z,7.60
2022-08-20T06:07:31.638Z,7.03
2022-08-20T06:09:36.473Z,8.50
2022-08-20T06:11:41.527Z,7.97
2022-08-20T06:13:45.942Z,8.32
2022-08-20T06:15:50.544Z,8.32
2022-08-20T06:17:58.222Z,7.40
2022-08-20T06:20:06.353Z,7.78
2022-08-20T06:22:18.956Z,7.35
2022-08-20T06:24:31.559Z,8.40
2022-08-20T06:26:36.099Z,9.40
2022-08-20T06:28:40.353Z,7.97
2022-08-20T06:30:44.612Z,8.10
2022-08-20T06:32:49.338Z,8.50
2022-08-20T06:34:54.264Z,8.88
2022-08-20T06:37:00.822Z,9.07
2022-08-20T06:39:05.413Z,8.88
2022-08-20T06:41:11.159Z,9.00
2022-08-20T06:43:15.786Z,8.70
2022-08-20T06:45:24.640Z,8.50
2022-08-20T06:47:29.227Z,8.77
2022-08-20T06:49:36.267Z,8.25
2022-08-20T06:51:41.384Z,8.45
2022-08-20T06:53:46.244Z,7.70
2022-08-20T06:55:54.114Z,8.00
2022-08-20T06:58:01.454Z,9.30
2022-08-20T07:00:08.063Z,8.82
2022-08-20T07:02:12.371Z,8.68
2022-08-20T07:04:17.028Z,8.02
2022-08-20T07:06:21.406Z,8.05
2022-08-20T07:08:25.704Z,8.75
2022-08-20T07:10:30.783Z,8.10
2022-08-20T07:12:36.823Z,7.32
2022-08-20T07:14:42.539Z,8.43
2022-08-20T07:16:48.274Z,6.90
2022-08-20T07:18:52.595Z,7.80
2022-08-20T07:20:57.554Z,7.65
2022-08-20T07:23:02.726Z,7.60
2022-08-20T07:25:10.719Z,7.75
2022-08-20T07:27:15.488Z,7.28
2022-08-20T07:29:21.758Z,7.32
2022-08-20T07:31:45.055Z,7.32
2022-08-20T07:33:53.237Z,7.22
2022-08-20T07:35:58.543Z,7.88
2022-08-20T07:38:02.933Z,7.25
2022-08-20T07:40:09.674Z,7.40
2022-08-20T07:42:17.478Z,7.68
2022-08-20T07:44:22.932Z,7.70
2022-08-20T07:46:39.420Z,7.22
2022-08-20T07:48:47.076Z,7.70
2022-08-20T07:50:51.397Z,7.38
2022-08-20T07:53:01.373Z,7.28
2022-08-20T07:55:11.017Z,8.00
2022-08-20T07:57:17.347Z,7.82
2022-08-20T07:59:22.769Z,7.10
2022-08-20T08:01:32.262Z,7.43
2022-08-20T08:03:49.367Z,7.88
2022-08-20T08:05:58.082Z,7.65
2022-08-20T08:08:06.929Z,7.45
2022-08-20T08:10:15.294Z,7.03
2022-08-20T08:12:39.241Z,7.13
2022-08-20T08:14:47.887Z,6.80
2022-08-20T08:17:02.120Z,6.88
2022-08-20T08:20:03.661Z,6.78
2022-08-20T08:22:51.388Z,7.20
2022-08-20T08:25:19.465Z,6.65
2022-08-20T08:27:27.838Z,6.10
2022-08-20T08:29:47.561Z,6.40
2022-08-20T08:32:18.900Z,6.57
2022-08-20T08:37:18.643Z,6.38
2022-08-20T08:39:26.581Z,6.95
2022-08-20T08:41:55.220Z,6.80
2022-08-20T08:44:12.325Z,7.70
2022-08-20T08:46:21.667Z,6.95
2022-08-20T08:48:47.139Z,6.07
2022-08-20T08:51:22.217Z,6.90
2022-08-20T08:53:54.992Z,6.63
2022-08-20T08:56:33.874Z,6.25
2022-08-20T08:59:21.096Z,6.82
2022-08-20T09:01:54.914Z,6.90
2022-08-20T09:04:17.481Z,6.65
2022-08-20T09:06:30.926Z,6.65
2022-08-20T09:08:51.159Z,6.07
2022-08-20T09:11:32.274Z,7.13
2022-08-20T09:14:09.563Z,6.78
2022-08-20T09:16:53.225Z,6.70
2022-08-20T09:19:28.557Z,6.70
2022-08-20T09:21:55.295Z,6.75
2022-08-20T09:24:10.100Z,6.05
2022-08-20T09:26:44.476Z,5.88
2022-08-20T09:29:03.902Z,6.20
2022-08-20T09:31:33.382Z,6.57
2022-08-20T09:33:51.177Z,6.32
2022-08-20T09:36:31.352Z,6.70
2022-08-20T09:38:52.841Z,6.50
2022-08-20T09:41:11.255Z,6.70
2022-08-20T09:43:36.258Z,6.47
2022-08-20T09:46:00.749Z,6.43
2022-08-20T09:48:20.558Z,7.05
2022-08-20T09:50:43.303Z,6.95
2022-08-20T09:55:23.885Z,7.40
2022-08-20T09:57:48.475Z,6.75
2022-08-20T10:00:25.051Z,6.00
2022-08-20T10:02:41.948Z,6.85
2022-08-20T10:04:56.100Z,6.78
2022-08-20T10:07:24.904Z,7.13
2022-08-20T10:10:00.439Z,6.53
2022-08-20T10:12:33.625Z,6.88
2022-08-20T10:15:07.638Z,5.95
2022-08-20T10:17:45.843Z,6.63
2022-08-20T10:20:24.577Z,7.15
2022-08-20T10:23:01.452Z,6.57
2022-08-20T10:25:41.558Z,6.68
2022-08-20T10:28:09.092Z,5.72
2022-08-20T10:30:40.545Z,7.30
2022-08-20T10:33:22.099Z,6.55
2022-08-20T10:36:26.819Z,5.93
2022-08-20T10:39:09.614Z,6.63
2022-08-20T10:42:20.455Z,7.47
2022-08-20T10:45:41.472Z,6.90
2022-08-20T10:48:25.689Z,6.45
2022-08-20T10:55:33.243Z,7.03
2022-08-20T10:58:06.540Z,6.55
2022-08-20T11:00:47.717Z,6.93
2022-08-20T11:13:18.297Z,7.30
2022-08-20T11:15:47.778Z,6.90
2022-08-20T11:18:28.140Z,6.72
2022-08-20T11:20:59.142Z,6.40
2022-08-20T11:24:02.235Z,6.68
2022-08-20T11:26:29.839Z,6.50
2022-08-20T11:30:09.725Z,6.47
2022-08-20T11:33:02.844Z,6.70
2022-08-20T11:35:52.173Z,6.38
2022-08-20T11:38:34.931Z,6.53
2022-08-20T11:41:45.843Z,6.03
2022-08-20T11:44:21.600Z,6.80
2022-08-20T11:47:01.783Z,6.68
2022-08-20T11:50:04.906Z,6.93
2022-08-20T11:52:55.666Z,6.10
2022-08-20T11:56:02.594Z,6.90
2022-08-20T11:58:47.393Z,6.88
2022-08-20T12:02:23.982Z,6.57
2022-08-20T12:05:49.423Z,6.63
2022-08-20T12:09:31.348Z,6.05
2022-08-20T12:12:50.791Z,5.60
2022-08-20T12:15:32.517Z,6.53
2022-08-20T12:18:49.733Z,6.13
2022-08-20T12:21:40.319Z,5.95
2022-08-20T12:37:24.345Z,6.72
2022-08-20T12:54:53.483Z,6.18
2022-08-20T13:03:06.804Z,6.25
2022-08-20T13:05:49.318Z,6.57
2022-08-20T13:08:35.131Z,6.60
2022-08-20T13:11:20.922Z,6.07
2022-08-20T13:14:12.659Z,6.93
2022-08-20T13:17:38.084Z,6.35
2022-08-20T13:20:22.906Z,6.38
2022-08-20T13:23:03.606Z,5.70
2022-08-20T13:26:02.162Z,5.80
2022-08-20T13:28:44.697Z,6.85
2022-08-20T13:32:12.290Z,6.50
2022-08-20T13:35:02.531Z,6.07
2022-08-20T13:37:39.520Z,5.97
2022-08-20T13:40:13.720Z,5.90
2022-08-20T13:43:07.752Z,6.07
2022-08-20T13:54:03.763Z,5.60
2022-08-20T13:56:22.669Z,5.90
2022-08-20T13:59:07.124Z,5.53
2022-08-20T14:04:36.950Z,6.53
2022-08-20T14:07:22.435Z,6.00
2022-08-20T14:13:34.823Z,5.57
2022-08-20T14:15:40.061Z,5.28
2022-08-20T14:17:52.157Z,6.40
2022-08-20T14:20:01.170Z,5.22
2022-08-20T14:22:07.967Z,6.43
2022-08-20T14:24:12.135Z,5.70
2022-08-20T14:26:16.442Z,6.30
2022-08-20T14:28:23.344Z,5.90
2022-08-20T14:30:30.492Z,5.90
2022-08-20T14:32:34.824Z,5.78
2022-08-20T14:34:41.223Z,6.30
2022-08-20T14:36:45.530Z,6.72
2022-08-20T14:38:52.236Z,6.32
2022-08-20T14:40:56.653Z,6.50
2022-08-20T14:43:00.975Z,5.60
2022-08-20T14:45:06.615Z,5.53
2022-08-20T14:47:18.426Z,5.80
2022-08-20T14:49:22.779Z,6.43
2022-08-20T14:51:28.600Z,6.47
2022-08-20T14:53:37.427Z,5.65
2022-08-20T14:55:44.221Z,6.13
2022-08-20T14:57:49.992Z,5.55
2022-08-20T14:59:59.412Z,6.13
2022-08-20T15:04:07.882Z,6.07
2022-08-20T15:06:21.753Z,5.30
2022-08-20T15:08:28.326Z,6.18
2022-08-20T15:10:34.964Z,5.65
2022-08-20T15:12:39.295Z,6.20
2022-08-20T15:14:48.060Z,6.00
2022-08-20T15:16:53.678Z,5.32
2022-08-20T15:18:59.616Z,5.45
2022-08-20T15:21:04.373Z,5.70
2022-08-20T15:23:14.585Z,6.22
2022-08-20T15:25:22.916Z,5.82
2022-08-20T15:27:27.518Z,5.55
2022-08-20T15:29:33.666Z,6.25
2022-08-20T15:31:38.008Z,5.40
2022-08-20T15:33:43.304Z,5.70
2022-08-20T15:35:48.056Z,6.25
2022-08-20T15:37:54.663Z,5.47
2022-08-20T15:40:03.233Z,5.35
2022-08-20T15:42:10.332Z,6.40
2022-08-20T15:44:14.576Z,6.40
2022-08-20T15:46:18.771Z,7.15
2022-08-20T15:48:31.930Z,6.13
2022-08-20T15:50:53.909Z,5.50
2022-08-20T15:53:02.398Z,6.10
2022-08-20T15:55:08.320Z,6.32
2022-08-20T15:57:17.506Z,7.47
2022-08-20T15:59:58.805Z,7.35
2022-08-20T16:02:17.195Z,6.50
2022-08-20T16:04:36.137Z,7.13
2022-08-20T16:06:41.258Z,7.72
2022-08-20T16:09:03.606Z,7.30
2022-08-20T16:11:18.919Z,6.90
2022-08-20T16:13:32.418Z,6.18
2022-08-20T16:15:47.591Z,5.90
2022-08-20T16:18:07.064Z,7.30
2022-08-20T16:20:17.756Z,6.07
2022-08-20T16:22:22.784Z,6.65
2022-08-20T16:24:27.233Z,6.75
2022-08-20T16:26:51.123Z,6.43
2022-08-20T16:29:14.192Z,6.28
2022-08-20T16:31:22.120Z,6.15
2022-08-20T16:33:32.755Z,6.93
2022-08-20T16:35:42.919Z,6.65
2022-08-20T16:37:57.319Z,6.40
2022-08-20T16:40:15.131Z,6.53
2022-08-20T16:42:24.546Z,6.10
2022-08-20T16:44:34.482Z,6.20
2022-08-20T16:46:54.600Z,6.07
2022-08-20T16:49:01.579Z,6.78
2022-08-20T16:51:10.439Z,5.90
2022-08-20T16:53:19.575Z,6.63
2022-08-20T16:55:25.372Z,6.57
2022-08-20T16:57:29.932Z,6.72
2022-08-20T16:59:55.094Z,7.07
2022-08-20T17:02:08.305Z,6.03
2022-08-20T17:04:22.280Z,6.72
2022-08-20T17:06:29.678Z,7.55
2022-08-20T17:08:36.677Z,6.43
2022-08-20T17:10:56.860Z,7.07
2022-08-20T17:13:05.819Z,7.33
2022-08-20T17:15:21.481Z,6.50
2022-08-20T17:17:28.381Z,6.43
2022-08-20T17:19:33.967Z,6.70
2022-08-20T17:21:39.597Z,6.38
2022-08-20T17:23:55.944Z,6.40
2022-08-20T17:26:03.605Z,7.45
2022-08-20T17:28:16.269Z,6.95
2022-08-20T17:30:25.876Z,6.85
2022-08-20T17:34:45.707Z,7.28
2022-08-20T17:36:53.595Z,6.95
2022-08-20T17:38:59.499Z,7.88
2022-08-20T17:41:09.090Z,7.38
2022-08-20T17:43:26.859Z,6.35
2022-08-20T17:45:38.972Z,7.00
2022-08-20T17:47:45.058Z,6.90
2022-08-20T17:50:02.691Z,7.15
2022-08-20T17:52:17.320Z,7.50
2022-08-20T17:54:24.596Z,8.07
2022-08-20T17:56:31.961Z,7.00
2022-08-20T17:58:55.445Z,7.88
2022-08-20T18:01:02.448Z,7.22
2022-08-20T18:03:16.565Z,8.40
2022-08-20T18:05:22.536Z,7.40
2022-08-20T18:07:31.007Z,7.93
2022-08-20T18:09:46.566Z,7.10
2022-08-20T18:11:57.629Z,7.95
2022-08-20T18:14:19.114Z,8.77
2022-08-20T18:16:31.494Z,7.38
2022-08-20T18:18:56.164Z,7.75
2022-08-20T18:21:27.286Z,7.75
2022-08-20T18:23:34.607Z,7.00
2022-08-20T18:25:42.618Z,7.57
2022-08-20T18:27:51.909Z,7.43
2022-08-20T18:29:58.952Z,6.93
2022-08-20T18:32:07.660Z,6.85
2022-08-20T18:34:14.612Z,7.38
2022-08-20T18:36:26.893Z,7.15
2022-08-20T18:38:34.312Z,7.38
2022-08-20T18:40:38.936Z,7.10
2022-08-20T18:42:43.931Z,7.57
2022-08-20T18:44:51.180Z,7.43
2022-08-20T18:46:58.062Z,7.35
2022-08-20T18:49:06.246Z,8.63
2022-08-20T18:51:12.803Z,8.05
2022-08-20T18:53:20.097Z,8.18
2022-08-20T18:55:34.202Z,7.32
2022-08-20T18:57:42.830Z,8.55
2022-08-20T18:59:57.517Z,9.00
2022-08-20T19:02:16.149Z,9.93
2022-08-20T19:04:28.668Z,8.57
2022-08-20T19:06:41.813Z,8.50
2022-08-20T19:08:50.818Z,9.40
2022-08-20T19:11:04.397Z,8.43
2022-08-20T19:13:29.278Z,8.65
2022-08-20T19:15:39.564Z,8.95
2022-08-20T19:17:53.171Z,9.13
2022-08-20T19:20:05.380Z,9.18
2022-08-20T19:22:13.987Z,8.82
2022-08-20T19:24:24.409Z,8.85
2022-08-20T19:26:31.459Z,8.77
2022-08-20T19:28:42.271Z,8.32
2022-08-20T19:30:47.245Z,8.70
2022-08-20T19:32:53.604Z,8.90
2022-08-20T19:35:00.711Z,9.93
2022-08-20T19:37:34.905Z,10.45
2022-08-20T19:39:40.076Z,9.35
2022-08-20T19:41:49.755Z,9.93
2022-08-20T19:45:59.097Z,9.70
2022-08-20T19:48:14.076Z,10.00
2022-08-20T19:50:37.374Z,10.25
2022-08-20T19:52:56.773Z,10.65
2022-08-20T19:55:03.817Z,11.30
2022-08-20T19:57:08.781Z,9.98
2022-08-20T19:59:19.218Z,9.75
2022-08-20T20:01:23.689Z,10.32
2022-08-20T20:03:31.010Z,10.15
2022-08-20T20:05:36.528Z,9.82
2022-08-20T20:07:45.452Z,10.07
2022-08-20T20:09:53.937Z,10.65
2022-08-20T20:12:02.771Z,12.48
2022-08-20T20:14:10.279Z,11.02
2022-08-20T20:16:17.927Z,11.07
2022-08-20T20:18:23.880Z,10.73
2022-08-20T20:20:35.017Z,11.07
2022-08-20T20:22:52.078Z,11.05
2022-08-20T20:25:03.911Z,12.07
2022-08-20T20:27:13.639Z,11.80
2022-08-20T20:29:26.225Z,10.82
2022-08-20T20:31:32.986Z,11.25
2022-08-20T20:33:43.967Z,11.60
2022-08-20T20:35:49.006Z,11.23
2022-08-20T20:38:03.531Z,10.55
2022-08-20T20:40:18.965Z,10.35
2022-08-20T20:42:29.885Z,10.98
2022-08-20T20:44:37.598Z,11.38
2022-08-20T20:46:42.040Z,10.68
2022-08-20T20:48:49.768Z,10.95
2022-08-20T20:50:56.542Z,10.63
2022-08-20T20:53:02.756Z,11.43
2022-08-20T20:55:11.335Z,10.27
2022-08-20T20:57:38.082Z,11.70
2022-08-20T20:59:43.202Z,10.65
2022-08-20T21:01:49.900Z,11.73
2022-08-20T21:03:55.219Z,11.68
2022-08-20T21:05:59.529Z,11.52
2022-08-20T21:08:09.609Z,10.90
2022-08-20T21:10:13.971Z,10.70
2022-08-20T21:12:19.674Z,11.05
2022-08-20T21:14:23.901Z,11.30
2022-08-20T21:16:29.010Z,10.35
2022-08-20T21:18:36.742Z,11.05
2022-08-20T21:20:41.382Z,11.07
2022-08-20T21:22:45.636Z,11.80
2022-08-20T21:24:51.598Z,11.35
2022-08-20T21:27:01.520Z,11.75
2022-08-20T21:29:07.215Z,10.57
2022-08-20T21:31:13.943Z,11.07
2022-08-20T21:33:18.364Z,10.65
2022-08-20T21:35:23.303Z,11.18
2022-08-20T21:37:30.649Z,10.40
2022-08-20T21:39:35.046Z,10.65
2022-08-20T21:41:42.825Z,10.70
2022-08-20T21:43:49.440Z,11.25
2022-08-20T21:45:54.125Z,11.35
2022-08-20T21:47:58.792Z,10.90
2022-08-20T21:50:03.575Z,12.65
2022-08-20T21:52:11.094Z,10.82
2022-08-20T21:54:15.453Z,10.75
2022-08-20T21:56:19.987Z,11.35
2022-08-20T21:58:28.272Z,10.60
2022-08-20T22:00:56.775Z,10.75
2022-08-20T22:03:03.835Z,11.38
2022-08-20T22:05:11.510Z,10.63
2022-08-20T22:07:16.749Z,9.85
2022-08-20T22:09:24.568Z,10.43
2022-08-20T22:11:29.510Z,10.15
2022-08-20T22:13:35.833Z,10.68
2022-08-20T22:15:42.286Z,10.05
2022-08-20T22:17:46.505Z,9.95
2022-08-20T22:19:51.066Z,9.88
2022-08-20T22:21:59.271Z,10.68
2022-08-20T22:24:06.610Z,10.85
2022-08-20T22:26:11.068Z,9.80
2022-08-20T22:28:15.635Z,10.32
2022-08-20T22:30:21.476Z,10.48
2022-08-20T22:32:33.727Z,11.00
2022-08-20T22:34:50.097Z,10.55
2022-08-20T22:36:57.924Z,10.85
2022-08-20T22:39:02.391Z,10.85
2022-08-20T22:41:09.728Z,10.15
2022-08-20T22:43:14.752Z,10.43
2022-08-20T22:45:21.146Z,10.50
2022-08-20T22:47:29.486Z,11.27
2022-08-20T22:49:36.558Z,9.98
2022-08-20T22:51:44.284Z,10.73
2022-08-20T22:53:49.547Z,12.13
2022-08-20T22:55:54.659Z,11.18
2022-08-20T22:57:59.656Z,11.02
2022-08-20T23:00:07.624Z,10.88
2022-08-20T23:02:19.301Z,11.85
2022-08-20T23:04:27.898Z,10.52
2022-08-20T23:06:35.184Z,10.57
2022-08-20T23:08:40.048Z,11.25
2022-08-20T23:10:44.368Z,11.02
2022-08-20T23:12:48.601Z,12.70
2022-08-20T23:14:53.093Z,11.25
2022-08-20T23:17:01.757Z,11.68
2022-08-20T23:19:08.151Z,12.18
2022-08-20T23:21:14.694Z,10.88
2022-08-20T23:23:21.448Z,11.55
2022-08-20T23:25:28.711Z,11.88
2022-08-20T23:27:35.837Z,11.02
2022-08-20T23:29:40.096Z,10.98
2022-08-20T23:31:44.429Z,11.82
2022-08-20T23:33:48.921Z,12.27
2022-08-20T23:35:54.899Z,10.95
2022-08-20T23:38:00.085Z,11.57
2022-08-20T23:40:06.167Z,11.40
2022-08-20T23:42:11.111Z,10.70
2022-08-20T23:44:26.067Z,11.68
2022-08-20T23:46:34.878Z,11.65
2022-08-20T23:48:39.509Z,10.40
2022-08-20T23:50:43.932Z,11.18
2022-08-20T23:52:49.784Z,11.88
2022-08-20T23:54:55.934Z,11.50
2022-08-20T23:57:00.346Z,11.23
2022-08-20T23:59:05.275Z,12.32
